sensor_id;sensor_type;location;lat;lon;timestamp;P1;durP1;ratioP1;P2;durP2;ratioP2
20480;SDS011;10399;50.754;3.366;2024-02-26T00:00:46;2.55;;;1.77;;
20480;SDS011;10399;50.754;3.366;2024-02-26T00:03:15;4.57;;;1.80;;
20480;SDS011;10399;50.754;3.366;2024-02-26T00:05:46;5.10;;;1.50;;
20480;SDS011;10399;50.754;3.366;2024-02-26T00:08:19;2.58;;;1.77;;
20480;SDS011;10399;50.754;3.366;2024-02-26T00:10:49;3.47;;;1.40;;
20480;SDS011;10399;50.754;3.366;2024-02-26T00:13:19;5.03;;;1.67;;
20480;SDS011;10399;50.754;3.366;2024-02-26T00:15:49;2.03;;;1.52;;
20480;SDS011;10399;50.754;3.366;2024-02-26T00:18:16;2.78;;;1.48;;
20480;SDS011;10399;50.754;3.366;2024-02-26T00:20:53;4.95;;;1.63;;
20480;SDS011;10399;50.754;3.366;2024-02-26T00:23:30;2.20;;;1.70;;
20480;SDS011;10399;50.754;3.366;2024-02-26T00:26:00;3.58;;;1.60;;
20480;SDS011;10399;50.754;3.366;2024-02-26T00:28:27;2.08;;;1.75;;
20480;SDS011;10399;50.754;3.366;2024-02-26T00:31:03;3.45;;;1.60;;
20480;SDS011;10399;50.754;3.366;2024-02-26T00:33:30;2.58;;;1.42;;
20480;SDS011;10399;50.754;3.366;2024-02-26T00:36:00;3.25;;;1.65;;
20480;SDS011;10399;50.754;3.366;2024-02-26T00:38:27;4.18;;;1.70;;
20480;SDS011;10399;50.754;3.366;2024-02-26T00:40:57;2.08;;;1.60;;
20480;SDS011;10399;50.754;3.366;2024-02-26T00:43:34;2.55;;;1.25;;
20480;SDS011;10399;50.754;3.366;2024-02-26T00:46:07;2.28;;;1.67;;
20480;SDS011;10399;50.754;3.366;2024-02-26T00:48:37;3.63;;;1.50;;
20480;SDS011;10399;50.754;3.366;2024-02-26T00:51:05;2.58;;;1.70;;
20480;SDS011;10399;50.754;3.366;2024-02-26T00:53:38;2.92;;;1.50;;
20480;SDS011;10399;50.754;3.366;2024-02-26T00:56:11;4.13;;;1.52;;
20480;SDS011;10399;50.754;3.366;2024-02-26T00:58:46;3.85;;;1.80;;
20480;SDS011;10399;50.754;3.366;2024-02-26T01:04:13;4.55;;;1.40;;
20480;SDS011;10399;50.754;3.366;2024-02-26T01:06:52;4.18;;;1.55;;
20480;SDS011;10399;50.754;3.366;2024-02-26T01:09:22;1.83;;;1.08;;
20480;SDS011;10399;50.754;3.366;2024-02-26T01:11:52;4.40;;;1.60;;
20480;SDS011;10399;50.754;3.366;2024-02-26T01:14:19;3.38;;;1.58;;
20480;SDS011;10399;50.754;3.366;2024-02-26T01:16:46;2.72;;;1.30;;
20480;SDS011;10399;50.754;3.366;2024-02-26T01:19:13;4.13;;;1.30;;
20480;SDS011;10399;50.754;3.366;2024-02-26T01:21:40;3.92;;;1.92;;
20480;SDS011;10399;50.754;3.366;2024-02-26T01:24:07;2.53;;;1.70;;
20480;SDS011;10399;50.754;3.366;2024-02-26T01:26:34;1.98;;;1.58;;
20480;SDS011;10399;50.754;3.366;2024-02-26T01:29:01;3.30;;;1.58;;
20480;SDS011;10399;50.754;3.366;2024-02-26T01:31:28;4.20;;;1.58;;
20480;SDS011;10399;50.754;3.366;2024-02-26T01:33:55;2.45;;;1.50;;
20480;SDS011;10399;50.754;3.366;2024-02-26T01:36:22;2.50;;;1.55;;
20480;SDS011;10399;50.754;3.366;2024-02-26T01:38:49;4.80;;;1.80;;
20480;SDS011;10399;50.754;3.366;2024-02-26T01:41:16;4.40;;;1.60;;
20480;SDS011;10399;50.754;3.366;2024-02-26T01:43:43;4.90;;;1.80;;
20480;SDS011;10399;50.754;3.366;2024-02-26T01:46:19;2.30;;;1.60;;
20480;SDS011;10399;50.754;3.366;2024-02-26T01:48:47;2.55;;;1.60;;
20480;SDS011;10399;50.754;3.366;2024-02-26T01:51:16;5.47;;;1.58;;
20480;SDS011;10399;50.754;3.366;2024-02-26T01:53:44;3.28;;;1.30;;
20480;SDS011;10399;50.754;3.366;2024-02-26T01:56:11;2.97;;;1.48;;
20480;SDS011;10399;50.754;3.366;2024-02-26T01:58:39;1.52;;;1.30;;
20480;SDS011;10399;50.754;3.366;2024-02-26T02:01:07;2.35;;;1.50;;
20480;SDS011;10399;50.754;3.366;2024-02-26T02:03:34;6.47;;;1.65;;
20480;SDS011;10399;50.754;3.366;2024-02-26T02:06:02;2.40;;;1.60;;
20480;SDS011;10399;50.754;3.366;2024-02-26T02:08:30;6.32;;;1.73;;
20480;SDS011;10399;50.754;3.366;2024-02-26T02:10:58;2.60;;;1.70;;
20480;SDS011;10399;50.754;3.366;2024-02-26T02:13:26;5.22;;;2.67;;
20480;SDS011;10399;50.754;3.366;2024-02-26T02:15:53;4.80;;;1.80;;
20480;SDS011;10399;50.754;3.366;2024-02-26T02:18:20;2.67;;;1.48;;
20480;SDS011;10399;50.754;3.366;2024-02-26T02:20:47;3.15;;;1.40;;
20480;SDS011;10399;50.754;3.366;2024-02-26T02:23:14;2.25;;;1.70;;
20480;SDS011;10399;50.754;3.366;2024-02-26T02:25:41;1.92;;;1.35;;
20480;SDS011;10399;50.754;3.366;2024-02-26T02:28:08;2.28;;;1.42;;
20480;SDS011;10399;50.754;3.366;2024-02-26T02:30:36;1.67;;;1.20;;
20480;SDS011;10399;50.754;3.366;2024-02-26T02:33:04;3.55;;;1.40;;
20480;SDS011;10399;50.754;3.366;2024-02-26T02:35:31;2.92;;;1.30;;
20480;SDS011;10399;50.754;3.366;2024-02-26T02:37:58;1.98;;;1.35;;
20480;SDS011;10399;50.754;3.366;2024-02-26T02:40:25;1.25;;;1.13;;
20480;SDS011;10399;50.754;3.366;2024-02-26T02:42:52;1.75;;;1.20;;
20480;SDS011;10399;50.754;3.366;2024-02-26T02:45:19;2.75;;;1.50;;
20480;SDS011;10399;50.754;3.366;2024-02-26T02:47:47;3.75;;;1.75;;
20480;SDS011;10399;50.754;3.366;2024-02-26T02:50:14;1.33;;;1.23;;
20480;SDS011;10399;50.754;3.366;2024-02-26T02:52:41;2.85;;;1.30;;
20480;SDS011;10399;50.754;3.366;2024-02-26T02:55:08;2.85;;;1.35;;
20480;SDS011;10399;50.754;3.366;2024-02-26T02:57:35;1.85;;;1.20;;
20480;SDS011;10399;50.754;3.366;2024-02-26T03:00:08;6.35;;;1.25;;
20480;SDS011;10399;50.754;3.366;2024-02-26T03:02:36;3.17;;;1.10;;
20480;SDS011;10399;50.754;3.366;2024-02-26T03:05:03;1.20;;;1.13;;
20480;SDS011;10399;50.754;3.366;2024-02-26T03:07:31;1.67;;;0.98;;
20480;SDS011;10399;50.754;3.366;2024-02-26T03:09:58;2.13;;;1.27;;
20480;SDS011;10399;50.754;3.366;2024-02-26T03:12:25;3.05;;;1.30;;
20480;SDS011;10399;50.754;3.366;2024-02-26T03:14:54;3.33;;;1.27;;
20480;SDS011;10399;50.754;3.366;2024-02-26T03:17:21;1.48;;;1.30;;
20480;SDS011;10399;50.754;3.366;2024-02-26T03:19:51;1.63;;;1.20;;
20480;SDS011;10399;50.754;3.366;2024-02-26T03:22:20;2.85;;;1.27;;
20480;SDS011;10399;50.754;3.366;2024-02-26T03:24:47;1.42;;;1.10;;
20480;SDS011;10399;50.754;3.366;2024-02-26T03:27:15;1.70;;;1.02;;
20480;SDS011;10399;50.754;3.366;2024-02-26T03:29:42;2.83;;;1.17;;
20480;SDS011;10399;50.754;3.366;2024-02-26T03:32:09;1.17;;;1.08;;
20480;SDS011;10399;50.754;3.366;2024-02-26T03:34:36;2.25;;;1.38;;
20480;SDS011;10399;50.754;3.366;2024-02-26T03:37:05;1.98;;;1.33;;
20480;SDS011;10399;50.754;3.366;2024-02-26T03:39:33;2.10;;;1.63;;
20480;SDS011;10399;50.754;3.366;2024-02-26T03:42:00;1.40;;;1.30;;
20480;SDS011;10399;50.754;3.366;2024-02-26T03:44:28;1.65;;;1.55;;
20480;SDS011;10399;50.754;3.366;2024-02-26T03:46:55;1.85;;;1.70;;
20480;SDS011;10399;50.754;3.366;2024-02-26T03:49:22;2.45;;;1.80;;
20480;SDS011;10399;50.754;3.366;2024-02-26T03:51:50;1.60;;;1.50;;
20480;SDS011;10399;50.754;3.366;2024-02-26T03:54:17;2.03;;;1.70;;
20480;SDS011;10399;50.754;3.366;2024-02-26T03:56:44;3.60;;;1.70;;
20480;SDS011;10399;50.754;3.366;2024-02-26T03:59:11;2.20;;;1.88;;
20480;SDS011;10399;50.754;3.366;2024-02-26T04:01:38;2.45;;;2.25;;
20480;SDS011;10399;50.754;3.366;2024-02-26T04:04:05;3.28;;;2.10;;
20480;SDS011;10399;50.754;3.366;2024-02-26T04:06:32;4.40;;;2.30;;
20480;SDS011;10399;50.754;3.366;2024-02-26T04:09:00;3.17;;;2.00;;
20480;SDS011;10399;50.754;3.366;2024-02-26T04:11:30;2.40;;;2.20;;
20480;SDS011;10399;50.754;3.366;2024-02-26T04:13:57;2.60;;;2.30;;
20480;SDS011;10399;50.754;3.366;2024-02-26T04:16:24;2.80;;;2.47;;
20480;SDS011;10399;50.754;3.366;2024-02-26T04:18:51;2.60;;;2.33;;
20480;SDS011;10399;50.754;3.366;2024-02-26T04:21:20;4.47;;;2.70;;
20480;SDS011;10399;50.754;3.366;2024-02-26T04:23:50;4.85;;;2.85;;
20480;SDS011;10399;50.754;3.366;2024-02-26T04:26:17;2.90;;;2.58;;
20480;SDS011;10399;50.754;3.366;2024-02-26T04:28:44;3.97;;;3.13;;
20480;SDS011;10399;50.754;3.366;2024-02-26T04:31:11;2.88;;;2.60;;
20480;SDS011;10399;50.754;3.366;2024-02-26T04:33:37;3.95;;;2.50;;
20480;SDS011;10399;50.754;3.366;2024-02-26T04:36:05;4.18;;;3.30;;
20480;SDS011;10399;50.754;3.366;2024-02-26T04:38:33;7.03;;;3.53;;
20480;SDS011;10399;50.754;3.366;2024-02-26T04:41:00;3.80;;;2.85;;
20480;SDS011;10399;50.754;3.366;2024-02-26T04:43:27;4.40;;;3.17;;
20480;SDS011;10399;50.754;3.366;2024-02-26T04:45:54;4.00;;;2.78;;
20480;SDS011;10399;50.754;3.366;2024-02-26T04:48:23;4.05;;;3.25;;
20480;SDS011;10399;50.754;3.366;2024-02-26T04:50:50;6.40;;;3.72;;
20480;SDS011;10399;50.754;3.366;2024-02-26T04:53:17;4.63;;;3.38;;
20480;SDS011;10399;50.754;3.366;2024-02-26T04:55:44;5.45;;;3.35;;
20480;SDS011;10399;50.754;3.366;2024-02-26T04:58:11;4.32;;;3.80;;
20480;SDS011;10399;50.754;3.366;2024-02-26T05:00:38;4.22;;;3.50;;
20480;SDS011;10399;50.754;3.366;2024-02-26T05:03:05;5.47;;;3.90;;
20480;SDS011;10399;50.754;3.366;2024-02-26T05:05:32;7.35;;;3.90;;
20480;SDS011;10399;50.754;3.366;2024-02-26T05:07:59;4.75;;;4.05;;
20480;SDS011;10399;50.754;3.366;2024-02-26T05:10:26;32.00;;;14.07;;
20480;SDS011;10399;50.754;3.366;2024-02-26T05:12:53;4.72;;;4.00;;
20480;SDS011;10399;50.754;3.366;2024-02-26T05:15:19;4.55;;;3.53;;
20480;SDS011;10399;50.754;3.366;2024-02-26T05:17:46;6.93;;;4.22;;
20480;SDS011;10399;50.754;3.366;2024-02-26T05:20:13;4.60;;;4.15;;
20480;SDS011;10399;50.754;3.366;2024-02-26T05:22:40;5.03;;;4.20;;
20480;SDS011;10399;50.754;3.366;2024-02-26T05:25:08;8.25;;;4.90;;
20480;SDS011;10399;50.754;3.366;2024-02-26T05:27:35;9.32;;;4.90;;
20480;SDS011;10399;50.754;3.366;2024-02-26T05:30:02;7.25;;;4.97;;
20480;SDS011;10399;50.754;3.366;2024-02-26T05:32:30;8.55;;;5.55;;
20480;SDS011;10399;50.754;3.366;2024-02-26T05:34:57;9.50;;;5.78;;
20480;SDS011;10399;50.754;3.366;2024-02-26T05:37:27;8.40;;;5.95;;
20480;SDS011;10399;50.754;3.366;2024-02-26T05:39:54;11.15;;;6.28;;
20480;SDS011;10399;50.754;3.366;2024-02-26T05:42:22;7.75;;;5.95;;
20480;SDS011;10399;50.754;3.366;2024-02-26T05:44:50;9.32;;;6.00;;
20480;SDS011;10399;50.754;3.366;2024-02-26T05:47:17;8.77;;;6.38;;
20480;SDS011;10399;50.754;3.366;2024-02-26T05:49:44;9.30;;;6.57;;
20480;SDS011;10399;50.754;3.366;2024-02-26T05:52:11;8.05;;;6.32;;
20480;SDS011;10399;50.754;3.366;2024-02-26T05:54:38;10.20;;;6.20;;
20480;SDS011;10399;50.754;3.366;2024-02-26T05:57:05;9.95;;;7.30;;
20480;SDS011;10399;50.754;3.366;2024-02-26T05:59:32;11.73;;;7.10;;
20480;SDS011;10399;50.754;3.366;2024-02-26T06:01:59;9.73;;;6.95;;
20480;SDS011;10399;50.754;3.366;2024-02-26T06:04:26;9.05;;;7.00;;
20480;SDS011;10399;50.754;3.366;2024-02-26T06:06:53;11.07;;;7.53;;
20480;SDS011;10399;50.754;3.366;2024-02-26T06:09:22;12.18;;;7.38;;
20480;SDS011;10399;50.754;3.366;2024-02-26T06:11:50;12.43;;;7.82;;
20480;SDS011;10399;50.754;3.366;2024-02-26T06:14:17;10.52;;;7.30;;
20480;SDS011;10399;50.754;3.366;2024-02-26T06:16:46;10.00;;;7.50;;
20480;SDS011;10399;50.754;3.366;2024-02-26T06:19:13;8.45;;;7.28;;
20480;SDS011;10399;50.754;3.366;2024-02-26T06:21:40;10.10;;;7.07;;
20480;SDS011;10399;50.754;3.366;2024-02-26T06:24:07;9.18;;;8.07;;
20480;SDS011;10399;50.754;3.366;2024-02-26T06:26:34;10.65;;;7.70;;
20480;SDS011;10399;50.754;3.366;2024-02-26T06:29:01;10.50;;;7.25;;
20480;SDS011;10399;50.754;3.366;2024-02-26T06:31:28;9.02;;;7.35;;
20480;SDS011;10399;50.754;3.366;2024-02-26T06:33:55;7.63;;;6.35;;
20480;SDS011;10399;50.754;3.366;2024-02-26T06:36:22;9.57;;;6.47;;
20480;SDS011;10399;50.754;3.366;2024-02-26T06:38:50;10.70;;;6.70;;
20480;SDS011;10399;50.754;3.366;2024-02-26T06:41:17;8.35;;;7.00;;
20480;SDS011;10399;50.754;3.366;2024-02-26T06:43:44;7.72;;;6.20;;
20480;SDS011;10399;50.754;3.366;2024-02-26T06:46:12;9.27;;;7.30;;
20480;SDS011;10399;50.754;3.366;2024-02-26T06:48:38;8.35;;;7.22;;
20480;SDS011;10399;50.754;3.366;2024-02-26T06:51:05;10.52;;;7.30;;
20480;SDS011;10399;50.754;3.366;2024-02-26T06:53:32;7.35;;;6.57;;
20480;SDS011;10399;50.754;3.366;2024-02-26T06:55:59;9.75;;;6.78;;
20480;SDS011;10399;50.754;3.366;2024-02-26T06:58:26;8.27;;;6.93;;
20480;SDS011;10399;50.754;3.366;2024-02-26T07:00:54;9.07;;;6.85;;
20480;SDS011;10399;50.754;3.366;2024-02-26T07:03:24;8.75;;;7.43;;
20480;SDS011;10399;50.754;3.366;2024-02-26T07:05:54;8.10;;;7.30;;
20480;SDS011;10399;50.754;3.366;2024-02-26T07:08:21;10.55;;;7.60;;
20480;SDS011;10399;50.754;3.366;2024-02-26T07:10:48;8.02;;;7.10;;
20480;SDS011;10399;50.754;3.366;2024-02-26T07:13:15;9.15;;;7.07;;
20480;SDS011;10399;50.754;3.366;2024-02-26T07:15:42;8.80;;;7.47;;
20480;SDS011;10399;50.754;3.366;2024-02-26T07:18:09;9.48;;;7.82;;
20480;SDS011;10399;50.754;3.366;2024-02-26T07:20:37;10.32;;;8.02;;
20480;SDS011;10399;50.754;3.366;2024-02-26T07:23:04;9.02;;;7.53;;
20480;SDS011;10399;50.754;3.366;2024-02-26T07:25:30;9.40;;;7.90;;
20480;SDS011;10399;50.754;3.366;2024-02-26T07:27:57;8.60;;;7.70;;
20480;SDS011;10399;50.754;3.366;2024-02-26T07:30:24;10.23;;;8.57;;
20480;SDS011;10399;50.754;3.366;2024-02-26T07:32:51;11.40;;;8.00;;
20480;SDS011;10399;50.754;3.366;2024-02-26T07:35:18;8.93;;;7.80;;
20480;SDS011;10399;50.754;3.366;2024-02-26T07:37:47;9.00;;;8.02;;
20480;SDS011;10399;50.754;3.366;2024-02-26T07:40:16;9.85;;;8.20;;
20480;SDS011;10399;50.754;3.366;2024-02-26T07:42:43;8.27;;;7.47;;
20480;SDS011;10399;50.754;3.366;2024-02-26T07:45:10;8.32;;;7.43;;
20480;SDS011;10399;50.754;3.366;2024-02-26T07:47:38;9.18;;;8.15;;
20480;SDS011;10399;50.754;3.366;2024-02-26T07:50:07;9.35;;;8.05;;
20480;SDS011;10399;50.754;3.366;2024-02-26T07:52:35;12.50;;;8.45;;
20480;SDS011;10399;50.754;3.366;2024-02-26T07:55:02;9.95;;;8.88;;
20480;SDS011;10399;50.754;3.366;2024-02-26T07:57:33;10.35;;;8.18;;
20480;SDS011;10399;50.754;3.366;2024-02-26T08:00:00;10.65;;;8.68;;
20480;SDS011;10399;50.754;3.366;2024-02-26T08:02:33;9.93;;;8.38;;
20480;SDS011;10399;50.754;3.366;2024-02-26T08:05:00;12.98;;;8.93;;
20480;SDS011;10399;50.754;3.366;2024-02-26T08:07:28;9.80;;;8.38;;
20480;SDS011;10399;50.754;3.366;2024-02-26T08:09:55;10.52;;;9.20;;
20480;SDS011;10399;50.754;3.366;2024-02-26T08:12:22;10.10;;;9.02;;
20480;SDS011;10399;50.754;3.366;2024-02-26T08:14:49;9.82;;;8.82;;
20480;SDS011;10399;50.754;3.366;2024-02-26T08:17:16;10.07;;;8.65;;
20480;SDS011;10399;50.754;3.366;2024-02-26T08:19:43;8.80;;;7.90;;
20480;SDS011;10399;50.754;3.366;2024-02-26T08:22:10;9.15;;;8.18;;
20480;SDS011;10399;50.754;3.366;2024-02-26T08:24:42;9.05;;;7.95;;
20480;SDS011;10399;50.754;3.366;2024-02-26T08:27:09;9.55;;;8.20;;
20480;SDS011;10399;50.754;3.366;2024-02-26T08:29:36;9.02;;;7.60;;
20480;SDS011;10399;50.754;3.366;2024-02-26T08:32:03;9.80;;;7.57;;
20480;SDS011;10399;50.754;3.366;2024-02-26T08:34:30;9.02;;;7.63;;
20480;SDS011;10399;50.754;3.366;2024-02-26T08:36:57;8.30;;;7.28;;
20480;SDS011;10399;50.754;3.366;2024-02-26T08:39:24;8.65;;;6.72;;
20480;SDS011;10399;50.754;3.366;2024-02-26T08:41:52;8.30;;;7.28;;
20480;SDS011;10399;50.754;3.366;2024-02-26T08:44:19;9.65;;;7.60;;
20480;SDS011;10399;50.754;3.366;2024-02-26T08:46:46;8.43;;;7.53;;
20480;SDS011;10399;50.754;3.366;2024-02-26T08:49:13;8.73;;;7.35;;
20480;SDS011;10399;50.754;3.366;2024-02-26T08:51:43;11.30;;;7.47;;
20480;SDS011;10399;50.754;3.366;2024-02-26T08:54:10;9.07;;;8.18;;
20480;SDS011;10399;50.754;3.366;2024-02-26T08:56:37;8.63;;;7.45;;
20480;SDS011;10399;50.754;3.366;2024-02-26T08:59:04;10.23;;;7.72;;
20480;SDS011;10399;50.754;3.366;2024-02-26T09:01:31;9.15;;;7.60;;
20480;SDS011;10399;50.754;3.366;2024-02-26T09:03:59;8.90;;;8.00;;
20480;SDS011;10399;50.754;3.366;2024-02-26T09:06:26;8.18;;;7.28;;
20480;SDS011;10399;50.754;3.366;2024-02-26T09:08:53;9.20;;;7.40;;
20480;SDS011;10399;50.754;3.366;2024-02-26T09:11:22;9.63;;;7.32;;
20480;SDS011;10399;50.754;3.366;2024-02-26T09:13:49;8.48;;;7.05;;
20480;SDS011;10399;50.754;3.366;2024-02-26T09:16:15;7.70;;;6.38;;
20480;SDS011;10399;50.754;3.366;2024-02-26T09:18:42;7.45;;;6.65;;
20480;SDS011;10399;50.754;3.366;2024-02-26T09:21:09;6.30;;;5.70;;
20480;SDS011;10399;50.754;3.366;2024-02-26T09:23:36;7.70;;;6.03;;
20480;SDS011;10399;50.754;3.366;2024-02-26T09:26:05;7.68;;;6.15;;
20480;SDS011;10399;50.754;3.366;2024-02-26T09:28:32;8.23;;;6.53;;
20480;SDS011;10399;50.754;3.366;2024-02-26T09:31:04;6.78;;;5.72;;
20480;SDS011;10399;50.754;3.366;2024-02-26T09:33:32;7.60;;;6.50;;
20480;SDS011;10399;50.754;3.366;2024-02-26T09:36:00;7.07;;;6.28;;
20480;SDS011;10399;50.754;3.366;2024-02-26T09:38:27;8.20;;;6.40;;
20480;SDS011;10399;50.754;3.366;2024-02-26T09:41:02;7.65;;;6.60;;
20480;SDS011;10399;50.754;3.366;2024-02-26T09:43:31;6.75;;;6.05;;
20480;SDS011;10399;50.754;3.366;2024-02-26T09:46:01;8.93;;;6.35;;
20480;SDS011;10399;50.754;3.366;2024-02-26T09:48:31;8.02;;;6.32;;
20480;SDS011;10399;50.754;3.366;2024-02-26T09:51:01;6.95;;;6.25;;
20480;SDS011;10399;50.754;3.366;2024-02-26T09:53:29;7.32;;;6.15;;
20480;SDS011;10399;50.754;3.366;2024-02-26T09:55:59;6.53;;;5.68;;
20480;SDS011;10399;50.754;3.366;2024-02-26T09:58:27;10.30;;;5.97;;
20480;SDS011;10399;50.754;3.366;2024-02-26T10:00:58;6.05;;;5.45;;
20480;SDS011;10399;50.754;3.366;2024-02-26T10:03:30;7.93;;;6.28;;
20480;SDS011;10399;50.754;3.366;2024-02-26T10:06:04;8.48;;;5.97;;
20480;SDS011;10399;50.754;3.366;2024-02-26T10:08:32;8.00;;;6.30;;
20480;SDS011;10399;50.754;3.366;2024-02-26T10:10:59;9.30;;;6.15;;
20480;SDS011;10399;50.754;3.366;2024-02-26T10:13:31;7.68;;;6.40;;
20480;SDS011;10399;50.754;3.366;2024-02-26T10:15:58;7.57;;;5.93;;
20480;SDS011;10399;50.754;3.366;2024-02-26T10:18:25;6.80;;;5.95;;
20480;SDS011;10399;50.754;3.366;2024-02-26T10:20:59;6.30;;;5.70;;
20480;SDS011;10399;50.754;3.366;2024-02-26T10:23:28;6.90;;;5.95;;
20480;SDS011;10399;50.754;3.366;2024-02-26T10:25:55;7.55;;;5.60;;
20480;SDS011;10399;50.754;3.366;2024-02-26T10:28:22;8.98;;;6.05;;
20480;SDS011;10399;50.754;3.366;2024-02-26T10:30:50;7.72;;;6.45;;
20480;SDS011;10399;50.754;3.366;2024-02-26T10:33:18;9.02;;;6.20;;
20480;SDS011;10399;50.754;3.366;2024-02-26T10:35:46;6.60;;;5.90;;
20480;SDS011;10399;50.754;3.366;2024-02-26T10:38:13;7.32;;;6.25;;
20480;SDS011;10399;50.754;3.366;2024-02-26T10:40:43;9.18;;;5.93;;
20480;SDS011;10399;50.754;3.366;2024-02-26T10:43:10;7.32;;;6.07;;
20480;SDS011;10399;50.754;3.366;2024-02-26T10:45:37;6.38;;;5.60;;
20480;SDS011;10399;50.754;3.366;2024-02-26T10:48:13;6.45;;;5.72;;
20480;SDS011;10399;50.754;3.366;2024-02-26T10:50:41;6.70;;;5.60;;
20480;SDS011;10399;50.754;3.366;2024-02-26T10:53:12;7.07;;;5.20;;
20480;SDS011;10399;50.754;3.366;2024-02-26T10:55:45;5.88;;;5.00;;
20480;SDS011;10399;50.754;3.366;2024-02-26T10:58:34;6.47;;;5.28;;
20480;SDS011;10399;50.754;3.366;2024-02-26T11:01:02;8.23;;;5.38;;
20480;SDS011;10399;50.754;3.366;2024-02-26T11:03:31;7.55;;;5.82;;
20480;SDS011;10399;50.754;3.366;2024-02-26T11:06:01;5.95;;;5.25;;
20480;SDS011;10399;50.754;3.366;2024-02-26T11:08:30;6.55;;;5.35;;
20480;SDS011;10399;50.754;3.366;2024-02-26T11:10:58;6.25;;;5.00;;
20480;SDS011;10399;50.754;3.366;2024-02-26T11:13:27;6.38;;;5.32;;
20480;SDS011;10399;50.754;3.366;2024-02-26T11:16:00;7.50;;;5.80;;
20480;SDS011;10399;50.754;3.366;2024-02-26T11:18:28;7.28;;;5.32;;
20480;SDS011;10399;50.754;3.366;2024-02-26T11:20:57;8.18;;;5.63;;
20480;SDS011;10399;50.754;3.366;2024-02-26T11:23:26;6.47;;;5.47;;
20480;SDS011;10399;50.754;3.366;2024-02-26T11:25:54;7.82;;;5.90;;
20480;SDS011;10399;50.754;3.366;2024-02-26T11:28:24;8.82;;;5.80;;
20480;SDS011;10399;50.754;3.366;2024-02-26T11:30:53;7.35;;;5.90;;
20480;SDS011;10399;50.754;3.366;2024-02-26T11:33:21;8.15;;;6.05;;
20480;SDS011;10399;50.754;3.366;2024-02-26T11:35:48;8.23;;;5.75;;
20480;SDS011;10399;50.754;3.366;2024-02-26T11:38:23;9.10;;;6.30;;
20480;SDS011;10399;50.754;3.366;2024-02-26T11:40:53;8.35;;;5.95;;
20480;SDS011;10399;50.754;3.366;2024-02-26T11:43:23;8.13;;;6.20;;
20480;SDS011;10399;50.754;3.366;2024-02-26T11:46:29;8.13;;;6.03;;
20480;SDS011;10399;50.754;3.366;2024-02-26T11:49:02;10.07;;;6.40;;
20480;SDS011;10399;50.754;3.366;2024-02-26T11:51:56;7.65;;;5.80;;
20480;SDS011;10399;50.754;3.366;2024-02-26T11:59:51;10.20;;;6.70;;
20480;SDS011;10399;50.754;3.366;2024-02-26T12:05:09;10.00;;;7.57;;
20480;SDS011;10399;50.754;3.366;2024-02-26T12:07:54;10.35;;;6.72;;
20480;SDS011;10399;50.754;3.366;2024-02-26T12:13:05;10.60;;;7.05;;
20480;SDS011;10399;50.754;3.366;2024-02-26T12:16:07;10.95;;;7.13;;
20480;SDS011;10399;50.754;3.366;2024-02-26T12:18:32;11.43;;;7.13;;
20480;SDS011;10399;50.754;3.366;2024-02-26T12:21:02;9.73;;;6.75;;
20480;SDS011;10399;50.754;3.366;2024-02-26T12:23:30;12.18;;;8.02;;
20480;SDS011;10399;50.754;3.366;2024-02-26T12:26:01;10.77;;;7.40;;
20480;SDS011;10399;50.754;3.366;2024-02-26T12:28:32;11.35;;;7.53;;
20480;SDS011;10399;50.754;3.366;2024-02-26T12:31:00;12.38;;;8.02;;
20480;SDS011;10399;50.754;3.366;2024-02-26T12:33:27;12.93;;;8.27;;
20480;SDS011;10399;50.754;3.366;2024-02-26T12:35:56;11.38;;;7.70;;
20480;SDS011;10399;50.754;3.366;2024-02-26T12:38:24;11.93;;;7.78;;
20480;SDS011;10399;50.754;3.366;2024-02-26T12:40:53;10.55;;;7.30;;
20480;SDS011;10399;50.754;3.366;2024-02-26T12:43:20;10.65;;;7.03;;
20480;SDS011;10399;50.754;3.366;2024-02-26T12:45:47;9.73;;;6.65;;
20480;SDS011;10399;50.754;3.366;2024-02-26T12:48:15;10.27;;;6.70;;
20480;SDS011;10399;50.754;3.366;2024-02-26T12:50:45;9.07;;;6.45;;
20480;SDS011;10399;50.754;3.366;2024-02-26T12:53:15;9.10;;;6.20;;
20480;SDS011;10399;50.754;3.366;2024-02-26T12:55:42;10.45;;;5.45;;
20480;SDS011;10399;50.754;3.366;2024-02-26T12:58:10;6.97;;;5.55;;
20480;SDS011;10399;50.754;3.366;2024-02-26T13:00:38;8.20;;;5.85;;
20480;SDS011;10399;50.754;3.366;2024-02-26T13:03:07;9.55;;;6.03;;
20480;SDS011;10399;50.754;3.366;2024-02-26T13:05:34;8.55;;;6.10;;
20480;SDS011;10399;50.754;3.366;2024-02-26T13:08:02;8.95;;;5.97;;
20480;SDS011;10399;50.754;3.366;2024-02-26T13:10:34;8.15;;;6.13;;
20480;SDS011;10399;50.754;3.366;2024-02-26T13:13:01;7.70;;;5.68;;
20480;SDS011;10399;50.754;3.366;2024-02-26T13:15:29;8.10;;;6.10;;
20480;SDS011;10399;50.754;3.366;2024-02-26T13:17:56;6.43;;;5.00;;
20480;SDS011;10399;50.754;3.366;2024-02-26T13:20:28;7.70;;;5.53;;
20480;SDS011;10399;50.754;3.366;2024-02-26T13:23:01;6.85;;;5.63;;
20480;SDS011;10399;50.754;3.366;2024-02-26T13:25:33;8.20;;;5.35;;
20480;SDS011;10399;50.754;3.366;2024-02-26T13:30:51;6.63;;;4.72;;
20480;SDS011;10399;50.754;3.366;2024-02-26T13:33:19;6.72;;;4.95;;
20480;SDS011;10399;50.754;3.366;2024-02-26T13:35:47;5.65;;;4.32;;
20480;SDS011;10399;50.754;3.366;2024-02-26T13:38:14;6.88;;;4.43;;
20480;SDS011;10399;50.754;3.366;2024-02-26T13:40:41;6.88;;;4.75;;
20480;SDS011;10399;50.754;3.366;2024-02-26T13:43:08;6.20;;;4.93;;
20480;SDS011;10399;50.754;3.366;2024-02-26T13:45:36;8.77;;;4.65;;
20480;SDS011;10399;50.754;3.366;2024-02-26T13:48:06;5.13;;;3.78;;
20480;SDS011;10399;50.754;3.366;2024-02-26T13:50:37;8.15;;;4.10;;
20480;SDS011;10399;50.754;3.366;2024-02-26T13:53:05;7.55;;;4.53;;
20480;SDS011;10399;50.754;3.366;2024-02-26T13:55:32;5.38;;;4.18;;
20480;SDS011;10399;50.754;3.366;2024-02-26T13:57:59;6.85;;;4.07;;
20480;SDS011;10399;50.754;3.366;2024-02-26T14:00:29;5.95;;;4.50;;
20480;SDS011;10399;50.754;3.366;2024-02-26T14:03:01;5.75;;;4.80;;
20480;SDS011;10399;50.754;3.366;2024-02-26T14:05:29;5.80;;;4.55;;
20480;SDS011;10399;50.754;3.366;2024-02-26T14:07:56;4.65;;;3.80;;
20480;SDS011;10399;50.754;3.366;2024-02-26T14:10:24;5.53;;;4.15;;
20480;SDS011;10399;50.754;3.366;2024-02-26T14:12:51;7.80;;;3.97;;
20480;SDS011;10399;50.754;3.366;2024-02-26T14:15:18;4.85;;;3.70;;
20480;SDS011;10399;50.754;3.366;2024-02-26T14:17:45;4.57;;;3.72;;
20480;SDS011;10399;50.754;3.366;2024-02-26T14:20:12;4.93;;;3.80;;
20480;SDS011;10399;50.754;3.366;2024-02-26T14:22:39;4.55;;;3.72;;
20480;SDS011;10399;50.754;3.366;2024-02-26T14:25:06;4.95;;;3.83;;
20480;SDS011;10399;50.754;3.366;2024-02-26T14:27:35;4.55;;;3.53;;
20480;SDS011;10399;50.754;3.366;2024-02-26T14:30:03;4.20;;;3.53;;
20480;SDS011;10399;50.754;3.366;2024-02-26T14:32:30;6.13;;;3.80;;
20480;SDS011;10399;50.754;3.366;2024-02-26T14:35:02;5.07;;;4.10;;
20480;SDS011;10399;50.754;3.366;2024-02-26T14:37:33;4.72;;;3.92;;
20480;SDS011;10399;50.754;3.366;2024-02-26T14:40:00;6.38;;;4.28;;
20480;SDS011;10399;50.754;3.366;2024-02-26T14:42:29;5.22;;;4.10;;
20480;SDS011;10399;50.754;3.366;2024-02-26T14:44:56;6.05;;;3.88;;
20480;SDS011;10399;50.754;3.366;2024-02-26T14:47:23;8.10;;;4.88;;
20480;SDS011;10399;50.754;3.366;2024-02-26T14:49:50;5.10;;;4.10;;
20480;SDS011;10399;50.754;3.366;2024-02-26T14:52:18;3.97;;;3.58;;
20480;SDS011;10399;50.754;3.366;2024-02-26T14:54:45;5.72;;;4.50;;
20480;SDS011;10399;50.754;3.366;2024-02-26T14:57:12;6.55;;;4.10;;
20480;SDS011;10399;50.754;3.366;2024-02-26T14:59:39;6.18;;;4.70;;
20480;SDS011;10399;50.754;3.366;2024-02-26T15:02:06;4.35;;;3.90;;
20480;SDS011;10399;50.754;3.366;2024-02-26T15:04:36;4.35;;;3.83;;
20480;SDS011;10399;50.754;3.366;2024-02-26T15:07:03;4.75;;;3.67;;
20480;SDS011;10399;50.754;3.366;2024-02-26T15:09:31;5.20;;;3.70;;